Time;durP1;ratioP1;P1;durP2;ratioP2;P2;SDS_P1;SDS_P2;PMS_P1;PMS_P2;Temp;Humidity;BMP_temperature;BMP_pressure;BME280_temperature;BME280_humidity;BME280_pressure;Samples;Min_cycle;Max_cycle;Signal;HPM_P1;HPM_P2
2022/02/28 00:01:11;;;;;;;14.27;8.25;;;1.00;1.00;;;;;;7364936;19;20011;-60
2022/02/28 00:03:41;;;;;;;15.35;7.75;;;0.90;1.00;;;;;;7354497;19;20085;-60
2022/02/28 00:06:14;;;;;;;13.05;8.65;;;0.70;1.00;;;;;;7384730;19;20010;-58
2022/02/28 00:08:47;;;;;;;14.88;8.00;;;0.80;1.00;;;;;;7361895;19;20011;-59
2022/02/28 00:11:17;;;;;;;13.75;8.88;;;0.70;1.00;;;;;;7365136;19;20006;-59
2022/02/28 00:13:47;;;;;;;15.52;8.60;;;0.60;1.00;;;;;;7355836;19;20027;-60
2022/02/28 00:16:17;;;;;;;12.02;7.57;;;0.50;1.00;;;;;;7363793;19;20010;-60
2022/02/28 00:18:47;;;;;;;13.88;7.63;;;0.40;1.00;;;;;;7363376;19;20042;-60
2022/02/28 00:21:16;;;;;;;11.93;6.90;;;0.50;1.00;;;;;;7385928;19;20015;-59
2022/02/28 00:23:49;;;;;;;12.05;7.78;;;0.40;1.00;;;;;;7354503;19;19998;-59
2022/02/28 00:26:19;;;;;;;12.43;7.63;;;0.50;1.00;;;;;;7363570;19;20470;-59
2022/02/28 00:28:49;;;;;;;11.15;7.15;;;0.50;1.00;;;;;;7361890;19;20395;-59
2022/02/28 00:31:21;;;;;;;11.50;7.30;;;0.40;1.00;;;;;;7363908;19;20027;-59
2022/02/28 00:33:51;;;;;;;13.27;7.72;;;0.40;1.00;;;;;;7357176;19;20010;-59
2022/02/28 00:36:21;;;;;;;12.93;7.03;;;0.40;1.00;;;;;;7383041;19;20546;-59
2022/02/28 00:38:54;;;;;;;10.63;7.20;;;0.40;1.00;;;;;;7359756;19;20086;-58
2022/02/28 00:41:24;;;;;;;13.02;7.75;;;0.40;1.00;;;;;;7361550;19;20011;-58
2022/02/28 00:43:54;;;;;;;11.68;7.13;;;0.30;1.00;;;;;;7354790;19;20014;-59
2022/02/28 00:46:24;;;;;;;11.95;7.22;;;0.30;1.00;;;;;;7362841;19;20014;-59
2022/02/28 00:48:54;;;;;;;13.38;7.80;;;0.30;1.00;;;;;;7361540;19;20015;-59
2022/02/28 00:51:24;;;;;;;15.88;8.25;;;0.30;1.00;;;;;;7383290;19;20021;-59
2022/02/28 00:53:56;;;;;;;12.75;7.60;;;0.20;1.00;;;;;;7355928;19;20014;-59
2022/02/28 00:56:26;;;;;;;13.55;7.63;;;0.20;1.00;;;;;;7362941;19;20061;-59
2022/02/28 00:58:56;;;;;;;11.25;7.75;;;0.30;1.00;;;;;;7361077;19;20481;-59
2022/02/28 01:01:26;;;;;;;12.18;7.32;;;0.30;1.00;;;;;;7361291;19;20470;-59
2022/02/28 01:03:57;;;;;;;11.38;7.32;;;0.20;1.00;;;;;;7355719;19;20043;-59
2022/02/28 01:06:27;;;;;;;14.13;7.90;;;0.10;1.00;;;;;;7383141;19;20086;-59
2022/02/28 01:09:00;;;;;;;13.82;8.15;;;0.00;1.00;;;;;;7360530;19;20025;-59
2022/02/28 01:11:30;;;;;;;13.55;7.88;;;0.10;1.00;;;;;;7360396;19;20025;-59
2022/02/28 01:14:00;;;;;;;11.98;8.27;;;0.10;1.00;;;;;;7354232;19;20035;-59
2022/02/28 01:16:30;;;;;;;11.80;7.85;;;-0.10;1.00;;;;;;7363096;19;20111;-59
2022/02/28 01:19:00;;;;;;;13.60;8.32;;;-0.20;1.00;;;;;;7360883;19;20018;-60
2022/02/28 01:21:30;;;;;;;13.45;8.68;;;-0.20;1.00;;;;;;7381277;19;20014;-60
2022/02/28 01:24:03;;;;;;;14.50;7.35;;;-0.20;1.00;;;;;;7352983;19;20085;-59
2022/02/28 01:26:36;;;;;;;12.40;7.70;;;-0.30;1.00;;;;;;7361249;19;20015;-62
2022/02/28 01:29:07;;;;;;;11.63;7.35;;;-0.10;1.00;;;;;;7362275;19;20658;-60
2022/02/28 01:31:37;;;;;;;13.30;8.00;;;0.00;1.00;;;;;;7360850;19;20086;-59
2022/02/28 01:34:08;;;;;;;15.23;8.63;;;-0.10;1.00;;;;;;7353098;19;20099;-61
2022/02/28 01:36:38;;;;;;;11.95;8.05;;;-0.20;1.00;;;;;;7366804;19;20115;-61
2022/02/28 01:39:10;;;;;;;15.48;8.48;;;-0.30;1.00;;;;;;7390403;19;20074;-59
2022/02/28 01:41:40;;;;;;;15.10;7.82;;;-0.40;1.00;;;;;;7368404;19;20562;-61
2022/02/28 01:44:12;;;;;;;11.88;7.50;;;-0.40;1.00;;;;;;7360579;19;20470;-60
2022/02/28 01:46:42;;;;;;;11.93;7.50;;;-0.50;1.00;;;;;;7368488;19;20575;-60
2022/02/28 01:49:12;;;;;;;13.70;7.85;;;-0.50;1.00;;;;;;7367483;19;20061;-60
2022/02/28 01:51:43;;;;;;;13.10;8.05;;;-0.60;1.00;;;;;;7367535;19;20495;-59
2022/02/28 01:54:15;;;;;;;14.00;8.20;;;-0.50;1.00;;;;;;7380786;19;20014;-59
2022/02/28 01:56:45;;;;;;;13.05;7.85;;;-0.50;1.00;;;;;;7366914;19;20010;-61
2022/02/28 01:59:15;;;;;;;11.32;7.45;;;-0.50;1.00;;;;;;7367029;19;20010;-60
2022/02/28 02:01:45;;;;;;;11.02;7.55;;;-0.50;1.00;;;;;;7367983;19;20354;-59
2022/02/28 02:04:15;;;;;;;13.48;7.93;;;-0.50;1.00;;;;;;7361502;19;20014;-60
2022/02/28 02:06:45;;;;;;;12.13;7.15;;;-0.50;1.00;;;;;;7367195;19;20010;-59
2022/02/28 02:09:19;;;;;;;13.82;8.05;;;-0.60;1.00;;;;;;7387428;19;20015;-60
2022/02/28 02:11:49;;;;;;;12.70;7.65;;;-0.60;1.00;;;;;;7366722;19;20018;-59
2022/02/28 02:14:19;;;;;;;11.10;7.40;;;-0.60;1.00;;;;;;7361836;19;20231;-60
2022/02/28 02:16:49;;;;;;;12.57;7.63;;;-0.50;1.00;;;;;;7366810;19;20092;-60
2022/02/28 02:19:19;;;;;;;13.63;7.53;;;-0.40;1.00;;;;;;7366448;19;20020;-60
2022/02/28 02:21:52;;;;;;;15.77;8.60;;;-0.40;1.00;;;;;;7365613;19;20017;-59
2022/02/28 02:24:21;;;;;;;15.80;8.73;;;-0.50;1.00;;;;;;7384382;19;20025;-59
2022/02/28 02:26:51;;;;;;;16.30;8.73;;;-0.50;1.00;;;;;;7367510;19;20010;-59
2022/02/28 02:29:21;;;;;;;13.85;8.35;;;-0.50;1.00;;;;;;7365117;19;20041;-60
2022/02/28 02:31:51;;;;;;;14.73;8.73;;;-0.50;1.00;;;;;;7364203;19;20653;-59
2022/02/28 02:34:21;;;;;;;15.85;8.70;;;-0.40;1.00;;;;;;7361226;19;20011;-62
2022/02/28 02:36:53;;;;;;;18.20;9.13;;;-0.40;1.00;;;;;;7368292;19;20104;-60
2022/02/28 02:39:23;;;;;;;13.23;8.50;;;-0.40;1.00;;;;;;7386586;19;20094;-60
2022/02/28 02:41:55;;;;;;;12.98;8.77;;;-0.40;1.00;;;;;;7362392;19;20010;-60
2022/02/28 02:44:30;;;;;;;14.25;8.35;;;-0.50;1.00;;;;;;7361132;19;20444;-58
2022/02/28 02:47:00;;;;;;;16.27;8.95;;;-0.60;1.00;;;;;;7366999;19;20011;-59
2022/02/28 02:49:31;;;;;;;16.52;9.35;;;-0.60;1.00;;;;;;7365586;19;20030;-59
2022/02/28 02:52:03;;;;;;;16.65;9.45;;;-0.70;1.00;;;;;;7363269;19;20014;-59
2022/02/28 02:54:34;;;;;;;14.32;8.38;;;-0.70;1.00;;;;;;7381624;19;20763;-60
2022/02/28 02:57:05;;;;;;;13.35;8.07;;;-0.60;1.00;;;;;;7367052;19;20010;-60
2022/02/28 02:59:34;;;;;;;16.48;7.82;;;-0.60;1.00;;;;;;7365674;19;20078;-60
2022/02/28 03:02:05;;;;;;;14.52;8.82;;;-0.70;1.00;;;;;;7363241;19;20010;-60
2022/02/28 03:04:35;;;;;;;13.30;8.93;;;-0.60;1.00;;;;;;7359960;19;20024;-60
2022/02/28 03:07:16;;;;;;;13.82;8.43;;;-0.50;1.00;;;;;;7366572;19;20082;-59
2022/02/28 03:09:46;;;;;;;13.77;8.48;;;-0.50;1.00;;;;;;7364986;19;20022;-59
2022/02/28 03:12:16;;;;;;;15.07;9.05;;;-0.70;1.00;;;;;;7383396;19;20028;-58
2022/02/28 03:14:47;;;;;;;13.27;8.18;;;-0.90;1.00;;;;;;7360680;19;20015;-60
2022/02/28 03:17:16;;;;;;;13.68;8.88;;;-0.90;1.00;;;;;;7364592;19;20055;-60
2022/02/28 03:19:46;;;;;;;12.32;8.35;;;-1.00;1.00;;;;;;7365047;19;20011;-60
2022/02/28 03:22:19;;;;;;;13.48;8.75;;;-1.00;1.00;;;;;;7362891;19;20078;-60
2022/02/28 03:24:49;;;;;;;15.95;9.27;;;-1.10;1.00;;;;;;7360932;19;20043;-60
2022/02/28 03:27:19;;;;;;;15.68;9.18;;;-1.10;1.00;;;;;;7385836;19;20014;-60
2022/02/28 03:29:49;;;;;;;16.70;9.20;;;-1.10;1.00;;;;;;7363378;19;20024;-60
2022/02/28 03:32:18;;;;;;;13.95;8.20;;;-1.00;1.00;;;;;;7362502;19;20014;-60
2022/02/28 03:34:48;;;;;;;17.05;8.80;;;-1.00;1.00;;;;;;7363157;19;20014;-59
2022/02/28 03:37:21;;;;;;;14.35;8.85;;;-1.10;1.00;;;;;;7362786;19;20070;-60
2022/02/28 03:39:51;;;;;;;14.90;8.82;;;-1.10;1.00;;;;;;7363317;19;20043;-60
2022/02/28 03:42:20;;;;;;;16.58;9.35;;;-1.10;1.00;;;;;;7380838;19;20014;-59
2022/02/28 03:44:50;;;;;;;20.55;10.43;;;-1.10;1.00;;;;;;7361756;19;20069;-59
2022/02/28 03:47:20;;;;;;;17.05;10.50;;;-1.00;1.00;;;;;;7364763;19;20016;-59
2022/02/28 03:49:50;;;;;;;17.27;10.25;;;-1.00;1.00;;;;;;7364512;19;20078;-60
2022/02/28 03:52:26;;;;;;;15.85;9.73;;;-1.10;1.00;;;;;;7359254;19;20078;-59
2022/02/28 03:54:55;;;;;;;15.13;9.50;;;-1.10;1.00;;;;;;7361177;19;20026;-60
2022/02/28 03:57:25;;;;;;;14.57;9.23;;;-1.10;1.00;;;;;;7385484;19;20371;-60
2022/02/28 03:59:55;;;;;;;21.25;9.75;;;-1.10;1.00;;;;;;7362278;19;20426;-60
2022/02/28 04:02:25;;;;;;;16.67;10.70;;;-1.00;1.00;;;;;;7358486;19;20014;-59
2022/02/28 04:04:58;;;;;;;15.70;10.52;;;-1.00;1.00;;;;;;7360788;19;20019;-60
2022/02/28 04:07:31;;;;;;;15.85;10.18;;;-0.80;1.00;;;;;;7362992;19;20007;-59
2022/02/28 04:10:00;;;;;;;17.35;9.77;;;-0.70;1.00;;;;;;7363750;19;20165;-60
2022/02/28 04:12:30;;;;;;;17.67;10.05;;;-0.50;1.00;;;;;;7379527;19;20035;-60
2022/02/28 04:15:00;;;;;;;16.65;9.30;;;-0.70;1.00;;;;;;7359666;19;20393;-60
2022/02/28 04:17:30;;;;;;;15.15;9.38;;;-0.80;1.00;;;;;;7362118;19;20085;-59
2022/02/28 04:20:00;;;;;;;14.82;9.63;;;-0.90;1.00;;;;;;7363252;19;20029;-60
2022/02/28 04:22:33;;;;;;;16.02;9.95;;;-0.90;1.00;;;;;;7360196;19;20011;-58
2022/02/28 04:25:02;;;;;;;18.30;9.93;;;-1.00;1.00;;;;;;7359608;19;20006;-59
2022/02/28 04:27:32;;;;;;;18.30;10.63;;;-1.10;1.00;;;;;;7383543;19;20017;-60
2022/02/28 04:30:02;;;;;;;17.98;10.68;;;-1.10;1.00;;;;;;7362377;19;20474;-60
2022/02/28 04:32:32;;;;;;;18.58;10.60;;;-1.10;1.00;;;;;;7358743;19;20053;-60
2022/02/28 04:35:02;;;;;;;17.88;11.02;;;-1.10;1.00;;;;;;7360117;19;20010;-60
2022/02/28 04:37:35;;;;;;;16.67;10.60;;;-1.00;1.00;;;;;;7362991;19;20514;-60
2022/02/28 04:40:05;;;;;;;14.35;9.25;;;-1.00;1.00;;;;;;7363348;19;20025;-59
2022/02/28 04:42:35;;;;;;;14.90;10.23;;;-1.00;1.00;;;;;;7380978;19;20014;-59
2022/02/28 04:45:06;;;;;;;17.70;10.73;;;-1.10;1.00;;;;;;7360018;19;20014;-59
2022/02/28 04:47:36;;;;;;;16.90;10.00;;;-1.20;1.00;;;;;;7361240;19;20508;-59
2022/02/28 04:50:06;;;;;;;18.10;10.32;;;-1.20;1.00;;;;;;7362207;19;20077;-59
2022/02/28 04:52:39;;;;;;;16.52;9.88;;;-1.20;1.00;;;;;;7358531;19;20542;-60
2022/02/28 04:55:10;;;;;;;21.20;10.18;;;-1.40;1.00;;;;;;7361267;19;20006;-59
2022/02/28 04:57:40;;;;;;;19.15;10.82;;;-1.40;1.30;;;;;;7362472;19;20014;-60
2022/02/28 05:00:12;;;;;;;18.27;10.93;;;-1.40;1.70;;;;;;7382867;19;20015;-60
2022/02/28 05:02:42;;;;;;;18.02;9.80;;;-1.40;1.30;;;;;;7356236;19;20003;-60
2022/02/28 05:05:12;;;;;;;16.95;10.23;;;-1.40;1.80;;;;;;7360399;19;20039;-60
2022/02/28 05:07:45;;;;;;;17.67;10.43;;;-1.40;1.50;;;;;;7362238;19;20023;-59
2022/02/28 05:10:14;;;;;;;18.00;11.02;;;-1.50;2.00;;;;;;7365183;19;20011;-59
2022/02/28 05:12:50;;;;;;;16.50;10.82;;;-1.40;2.10;;;;;;7362436;19;20497;-59
2022/02/28 05:15:22;;;;;;;15.75;10.52;;;-1.50;2.20;;;;;;7388684;19;20022;-60
2022/02/28 05:17:52;;;;;;;18.23;10.52;;;-1.50;2.50;;;;;;7367002;19;20010;-60
2022/02/28 05:20:22;;;;;;;19.02;10.68;;;-1.40;2.60;;;;;;7369069;19;20381;-60
2022/02/28 05:22:54;;;;;;;17.63;10.52;;;-1.50;1.90;;;;;;7363656;19;20346;-60
2022/02/28 05:25:26;;;;;;;16.90;10.80;;;-1.40;2.00;;;;;;7364779;19;20007;-60
2022/02/28 05:27:56;;;;;;;18.42;11.23;;;-1.20;1.50;;;;;;7369035;19;20024;-60
2022/02/28 05:30:26;;;;;;;19.38;10.73;;;-1.10;1.20;;;;;;7392554;19;20025;-60
2022/02/28 05:32:56;;;;;;;16.75;10.73;;;-1.20;1.00;;;;;;7361077;19;20790;-59
2022/02/28 05:35:26;;;;;;;23.02;11.45;;;-1.30;1.00;;;;;;7364777;19;20434;-59
2022/02/28 05:38:01;;;;;;;16.95;10.65;;;-1.30;1.30;;;;;;7367535;19;20677;-59
2022/02/28 05:40:32;;;;;;;19.65;11.23;;;-1.30;1.30;;;;;;7369855;19;20526;-58
2022/02/28 05:43:05;;;;;;;18.52;10.50;;;-1.20;1.30;;;;;;7362628;19;20030;-59
2022/02/28 05:45:37;;;;;;;17.52;10.80;;;-1.20;1.00;;;;;;7387829;19;20011;-59
2022/02/28 05:48:10;;;;;;;18.63;10.27;;;-1.00;1.00;;;;;;7366627;19;20491;-59
2022/02/28 05:50:40;;;;;;;20.20;10.75;;;-1.10;1.00;;;;;;7369173;19;20095;-59
2022/02/28 05:53:14;;;;;;;18.58;10.77;;;-1.10;1.00;;;;;;7360390;19;20010;-59
2022/02/28 05:55:44;;;;;;;18.58;11.00;;;-1.00;1.00;;;;;;7366443;19;20085;-59
2022/02/28 05:58:14;;;;;;;21.10;11.43;;;-0.90;1.00;;;;;;7367239;19;20006;-59
2022/02/28 06:00:44;;;;;;;18.15;10.48;;;-0.90;1.00;;;;;;7367995;19;20094;-59
2022/02/28 06:03:15;;;;;;;20.38;10.73;;;-0.80;1.00;;;;;;7382363;19;20014;-60
2022/02/28 06:05:45;;;;;;;17.90;10.93;;;-0.90;1.00;;;;;;7365778;19;20082;-60
2022/02/28 06:08:18;;;;;;;21.05;10.27;;;-1.00;1.00;;;;;;7365304;19;20458;-60
2022/02/28 06:10:48;;;;;;;16.92;11.18;;;-1.00;1.00;;;;;;7367471;19;20014;-59
2022/02/28 06:13:18;;;;;;;22.50;10.32;;;-1.00;1.00;;;;;;7359359;19;20285;-58
2022/02/28 06:15:48;;;;;;;18.90;10.73;;;-1.10;1.00;;;;;;7365672;19;20007;-59
2022/02/28 06:18:19;;;;;;;20.55;11.65;;;-1.00;1.00;;;;;;7386218;19;20010;-59
2022/02/28 06:20:49;;;;;;;19.60;11.68;;;-1.10;1.00;;;;;;7364177;19;20105;-58
2022/02/28 06:23:24;;;;;;;16.98;10.60;;;-1.10;1.00;;;;;;7357692;19;20011;-58
2022/02/28 06:25:54;;;;;;;20.48;11.80;;;-1.20;1.00;;;;;;7366449;19;20457;-59
2022/02/28 06:28:25;;;;;;;25.63;12.63;;;-1.30;1.00;;;;;;7366384;19;20078;-59
2022/02/28 06:30:55;;;;;;;18.73;11.63;;;-1.30;1.00;;;;;;7364236;19;20015;-59
2022/02/28 06:33:25;;;;;;;21.13;12.20;;;-1.30;1.10;;;;;;7378275;19;20493;-59
2022/02/28 06:35:55;;;;;;;19.92;12.32;;;-1.20;1.30;;;;;;7366658;19;20042;-60
2022/02/28 06:38:29;;;;;;;21.95;12.52;;;-1.20;1.10;;;;;;7364667;19;20019;-59
2022/02/28 06:40:59;;;;;;;20.17;11.82;;;-1.10;1.00;;;;;;7366833;19;20014;-59
2022/02/28 06:43:29;;;;;;;18.40;11.82;;;-1.00;1.00;;;;;;7357376;19;20899;-60
2022/02/28 06:45:59;;;;;;;19.60;12.20;;;-1.00;1.00;;;;;;7364875;19;20017;-59
2022/02/28 06:48:29;;;;;;;20.88;12.00;;;-0.90;1.00;;;;;;7388005;19;20379;-60
2022/02/28 06:50:59;;;;;;;18.85;11.48;;;-0.90;1.00;;;;;;7364805;19;20067;-60
2022/02/28 06:53:33;;;;;;;18.98;11.07;;;-0.80;1.00;;;;;;7352985;19;20490;-58
2022/02/28 06:56:03;;;;;;;21.52;11.55;;;-0.70;1.00;;;;;;7362376;19;20407;-59
2022/02/28 06:58:35;;;;;;;21.38;10.57;;;-0.60;1.00;;;;;;7365224;19;20021;-60
2022/02/28 07:01:10;;;;;;;21.23;11.70;;;-0.50;1.00;;;;;;7366652;19;20466;-59
2022/02/28 07:03:43;;;;;;;20.10;11.80;;;-0.40;1.00;;;;;;7354042;19;20014;-60
2022/02/28 07:06:13;;;;;;;23.90;12.30;;;-0.40;1.00;;;;;;7384713;19;20018;-60
2022/02/28 07:08:46;;;;;;;23.50;11.75;;;-0.30;1.00;;;;;;7363284;19;20680;-59
2022/02/28 07:11:17;;;;;;;20.48;11.55;;;-0.20;1.00;;;;;;7366039;19;20022;-59
2022/02/28 07:13:46;;;;;;;20.88;10.55;;;-0.10;1.00;;;;;;7361183;19;20014;-59
2022/02/28 07:16:19;;;;;;;24.52;11.52;;;-0.10;1.00;;;;;;7362939;19;20085;-59
2022/02/28 07:18:49;;;;;;;21.63;12.05;;;0.00;1.00;;;;;;7362464;19;20457;-59
2022/02/28 07:21:19;;;;;;;22.73;11.73;;;0.10;1.00;;;;;;7386577;19;20006;-58
2022/02/28 07:23:51;;;;;;;19.23;11.60;;;0.10;1.00;;;;;;7358906;19;20472;-60
2022/02/28 07:26:21;;;;;;;22.30;12.10;;;0.10;1.00;;;;;;7361267;19;20572;-60
2022/02/28 07:28:51;;;;;;;25.48;12.75;;;0.30;1.00;;;;;;7362844;19;20086;-60
2022/02/28 07:31:36;;;;;;;23.65;12.27;;;0.40;1.00;;;;;;7363857;19;20508;-60
2022/02/28 07:34:06;;;;;;;26.95;11.77;;;0.50;1.00;;;;;;7355679;19;20011;-61
2022/02/28 07:36:36;;;;;;;22.30;12.52;;;0.50;1.00;;;;;;7384615;19;20010;-60
2022/02/28 07:39:09;;;;;;;22.02;11.25;;;0.60;1.00;;;;;;7383423;19;20015;-60
2022/02/28 07:41:39;;;;;;;21.05;11.82;;;0.70;1.00;;;;;;7363365;19;20011;-60
2022/02/28 07:44:09;;;;;;;20.42;10.45;;;0.70;1.00;;;;;;7356539;19;20007;-61
2022/02/28 07:46:39;;;;;;;17.38;10.95;;;0.80;1.00;;;;;;7363285;19;20780;-59
2022/02/28 07:49:09;;;;;;;19.48;10.63;;;0.80;1.00;;;;;;7362212;19;20007;-59
2022/02/28 07:51:39;;;;;;;29.10;11.75;;;0.90;1.00;;;;;;7362301;19;20519;-61
2022/02/28 07:54:11;;;;;;;17.70;10.68;;;0.90;1.00;;;;;;7377796;19;20020;-60
2022/02/28 07:56:41;;;;;;;20.00;10.98;;;1.10;1.00;;;;;;7362667;19;20010;-60
2022/02/28 07:59:11;;;;;;;18.55;10.90;;;1.10;1.00;;;;;;7362556;19;20081;-59
2022/02/28 08:01:41;;;;;;;24.70;11.75;;;1.20;1.00;;;;;;7363098;19;20020;-59
2022/02/28 08:04:12;;;;;;;21.25;11.63;;;1.20;1.00;;;;;;7350703;19;20028;-59
2022/02/28 08:06:42;;;;;;;17.88;10.63;;;1.40;1.00;;;;;;7360242;19;20570;-60
2022/02/28 08:09:16;;;;;;;21.52;10.65;;;1.40;1.00;;;;;;7384774;19;20011;-60
2022/02/28 08:11:49;;;;;;;19.58;10.88;;;1.40;1.00;;;;;;7361823;19;20007;-60
2022/02/28 08:14:19;;;;;;;17.13;10.75;;;1.50;1.00;;;;;;7354780;19;20022;-60
2022/02/28 08:16:49;;;;;;;18.92;10.80;;;1.60;1.00;;;;;;7358336;19;20003;-59
2022/02/28 08:19:19;;;;;;;20.42;11.30;;;1.70;1.00;;;;;;7359090;19;20014;-60
2022/02/28 08:21:49;;;;;;;19.50;10.90;;;1.80;1.00;;;;;;7361044;19;20020;-59
2022/02/28 08:24:22;;;;;;;23.23;11.45;;;1.90;1.00;;;;;;7377115;19;20358;-59
2022/02/28 08:26:52;;;;;;;18.75;10.73;;;1.90;1.00;;;;;;7358354;19;20007;-59
2022/02/28 08:29:22;;;;;;;18.15;10.73;;;2.00;1.00;;;;;;7361067;19;20006;-59
2022/02/28 08:31:52;;;;;;;19.17;10.07;;;2.10;1.00;;;;;;7362003;19;20006;-59
2022/02/28 08:34:24;;;;;;;18.67;10.90;;;2.20;1.00;;;;;;7355110;19;20007;-60
2022/02/28 08:36:55;;;;;;;21.80;11.25;;;2.30;1.00;;;;;;7358865;19;20010;-60
2022/02/28 08:39:27;;;;;;;19.42;10.63;;;2.50;1.00;;;;;;7381475;19;20425;-59
2022/02/28 08:41:57;;;;;;;17.85;11.02;;;2.60;1.00;;;;;;7358821;19;20023;-61
2022/02/28 08:44:27;;;;;;;17.83;10.82;;;2.60;1.00;;;;;;7353734;19;20114;-60
2022/02/28 08:46:57;;;;;;;25.77;12.38;;;2.70;1.00;;;;;;7358454;19;20022;-61
2022/02/28 08:49:29;;;;;;;17.63;10.30;;;2.80;1.00;;;;;;7358863;19;20027;-60
2022/02/28 08:51:59;;;;;;;20.58;11.10;;;2.80;1.00;;;;;;7356989;19;20015;-59
2022/02/28 08:54:31;;;;;;;21.05;10.60;;;2.90;1.00;;;;;;7378964;19;20106;-59
2022/02/28 08:57:03;;;;;;;20.20;10.88;;;2.80;1.00;;;;;;7358493;19;20066;-59
2022/02/28 08:59:34;;;;;;;23.88;14.27;;;3.00;1.00;;;;;;7358398;19;20106;-59
2022/02/28 09:02:04;;;;;;;17.00;10.52;;;3.20;1.00;;;;;;7354033;19;20027;-61
2022/02/28 09:04:36;;;;;;;19.70;10.38;;;3.40;1.00;;;;;;7354760;19;20085;-59
2022/02/28 09:07:06;;;;;;;18.17;10.77;;;3.50;1.00;;;;;;7359126;19;20043;-59
2022/02/28 09:09:39;;;;;;;19.05;9.98;;;3.60;1.00;;;;;;7376112;19;20015;-60
2022/02/28 09:12:10;;;;;;;17.60;9.93;;;3.70;1.00;;;;;;7374557;19;20026;-58
2022/02/28 09:14:41;;;;;;;18.52;10.85;;;4.00;1.00;;;;;;7356238;19;20074;-60
2022/02/28 09:17:11;;;;;;;19.02;10.70;;;3.90;1.00;;;;;;7354613;19;20011;-60
2022/02/28 09:19:40;;;;;;;17.25;10.20;;;3.80;1.00;;;;;;7357160;19;20074;-59
2022/02/28 09:22:12;;;;;;;17.92;10.63;;;3.80;1.00;;;;;;7356372;19;20010;-59
2022/02/28 09:24:44;;;;;;;18.80;10.68;;;3.90;1.00;;;;;;7355253;19;20078;-60
2022/02/28 09:27:14;;;;;;;20.00;10.80;;;4.10;1.00;;;;;;7378814;19;20026;-60
2022/02/28 09:30:06;;;;;;;14.32;9.43;;;4.20;1.00;;;;;;7359139;19;20006;-59
2022/02/28 09:32:36;;;;;;;19.35;9.93;;;4.30;1.00;;;;;;7355655;19;20018;-60
2022/02/28 09:35:07;;;;;;;19.63;10.55;;;4.40;1.00;;;;;;7354943;19;20025;-60
2022/02/28 09:37:37;;;;;;;19.02;11.23;;;4.50;1.00;;;;;;7357503;19;20473;-59
2022/02/28 09:40:11;;;;;;;17.63;9.50;;;4.60;1.00;;;;;;7360645;19;20098;-59
2022/02/28 09:42:42;;;;;;;17.63;9.60;;;4.70;1.00;;;;;;7358758;19;20014;-59
2022/02/28 09:45:18;;;;;;;18.13;10.27;;;4.70;1.00;;;;;;7376084;19;20344;-59
2022/02/28 09:47:48;;;;;;;18.65;10.30;;;4.80;1.00;;;;;;7356795;19;20006;-59
2022/02/28 09:50:18;;;;;;;21.13;11.18;;;4.70;1.00;;;;;;7360304;19;20077;-59
2022/02/28 09:52:48;;;;;;;17.33;10.32;;;5.10;1.00;;;;;;7358288;19;20033;-60
2022/02/28 09:55:21;;;;;;;22.35;11.63;;;4.90;1.00;;;;;;7355167;19;20387;-60
2022/02/28 09:57:53;;;;;;;24.25;11.32;;;4.90;1.00;;;;;;7363344;19;20078;-60
2022/02/28 10:00:24;;;;;;;16.80;10.68;;;5.10;1.00;;;;;;7388599;19;20014;-59
2022/02/28 10:02:56;;;;;;;17.38;10.00;;;5.20;1.00;;;;;;7364284;19;20027;-60
2022/02/28 10:05:27;;;;;;;18.70;11.43;;;5.40;1.00;;;;;;7363479;19;20011;-59
2022/02/28 10:07:58;;;;;;;18.27;10.15;;;5.30;1.00;;;;;;7364633;19;20348;-60
2022/02/28 10:10:31;;;;;;;18.27;10.50;;;5.40;1.00;;;;;;7367890;19;20421;-60
2022/02/28 10:13:01;;;;;;;17.40;10.15;;;5.50;1.00;;;;;;7365434;19;20556;-59
2022/02/28 10:15:31;;;;;;;19.15;10.70;;;5.30;1.00;;;;;;7385354;19;20019;-60
2022/02/28 10:18:03;;;;;;;14.38;9.02;;;5.60;1.00;;;;;;7363617;19;20026;-60
2022/02/28 10:20:35;;;;;;;19.95;10.52;;;5.80;1.00;;;;;;7365308;19;20013;-59
2022/02/28 10:23:08;;;;;;;16.25;8.98;;;5.70;1.00;;;;;;7362153;19;20011;-59
2022/02/28 10:25:42;;;;;;;17.05;9.40;;;6.00;1.00;;;;;;7362443;19;20026;-59
2022/02/28 10:28:17;;;;;;;19.30;10.60;;;5.90;1.00;;;;;;7363730;19;20072;-60
2022/02/28 10:31:00;;;;;;;16.75;10.25;;;6.10;1.00;;;;;;7364602;19;20151;-59
2022/02/28 10:33:32;;;;;;;15.70;10.05;;;6.20;1.00;;;;;;7380632;19;20022;-59
2022/02/28 10:36:15;;;;;;;19.08;10.00;;;6.20;1.00;;;;;;7363538;19;20608;-59
2022/02/28 10:38:49;;;;;;;15.75;9.15;;;6.30;1.00;;;;;;7363890;19;20010;-58
2022/02/28 10:41:25;;;;;;;15.80;9.82;;;6.40;1.00;;;;;;7365999;19;20074;-59
2022/02/28 10:43:57;;;;;;;13.70;8.95;;;6.50;1.00;;;;;;7359223;19;20128;-60
2022/02/28 10:46:33;;;;;;;14.93;9.02;;;6.70;1.00;;;;;;7364061;19;20021;-59
2022/02/28 10:49:07;;;;;;;16.15;9.88;;;6.70;1.00;;;;;;7364560;19;20017;-60
2022/02/28 10:51:52;;;;;;;14.68;9.43;;;7.00;1.00;;;;;;7365604;19;20011;-60
2022/02/28 10:54:25;;;;;;;16.50;8.95;;;6.90;1.00;;;;;;7382963;19;20010;-59
2022/02/28 10:57:01;;;;;;;15.50;10.00;;;7.00;1.00;;;;;;7364702;19;20023;-59
2022/02/28 10:59:33;;;;;;;16.80;9.38;;;6.80;1.00;;;;;;7361913;19;20309;-59
2022/02/28 11:02:03;;;;;;;15.68;9.70;;;7.00;1.00;;;;;;7360427;19;20775;-59
2022/02/28 11:04:40;;;;;;;15.48;9.75;;;6.50;1.00;;;;;;7359849;19;20050;-60
2022/02/28 11:07:13;;;;;;;21.20;12.50;;;6.60;1.00;;;;;;7364246;19;20462;-59
2022/02/28 11:09:45;;;;;;;15.70;9.48;;;6.90;1.00;;;;;;7361474;19;20018;-60
2022/02/28 11:12:27;;;;;;;14.55;9.48;;;6.90;1.00;;;;;;7380931;19;20018;-60
2022/02/28 11:15:00;;;;;;;15.18;9.18;;;7.20;1.00;;;;;;7356893;19;20039;-60
2022/02/28 11:17:33;;;;;;;16.33;9.25;;;7.20;1.00;;;;;;7362344;19;20076;-60
2022/02/28 11:20:08;;;;;;;17.63;9.85;;;7.20;1.00;;;;;;7363783;19;20018;-60
2022/02/28 11:22:39;;;;;;;14.07;9.05;;;7.30;1.00;;;;;;7362761;19;20516;-60
2022/02/28 11:25:12;;;;;;;17.77;9.80;;;7.30;1.00;;;;;;7360910;19;20465;-58
2022/02/28 11:27:48;;;;;;;16.00;9.68;;;7.40;1.00;;;;;;7362415;19;20029;-61
2022/02/28 11:30:21;;;;;;;14.77;10.18;;;7.60;1.00;;;;;;7386288;19;20057;-61
2022/02/28 11:32:56;;;;;;;16.87;10.00;;;7.50;1.00;;;;;;7360379;19;20022;-59
2022/02/28 11:35:43;;;;;;;16.30;10.60;;;7.60;1.00;;;;;;7357292;19;20765;-58
2022/02/28 11:38:34;;;;;;;15.88;9.73;;;7.40;1.00;;;;;;7362067;19;20474;-60
2022/02/28 11:41:08;;;;;;;15.30;9.88;;;7.60;1.00;;;;;;7364129;19;20032;-60
2022/02/28 11:43:41;;;;;;;16.02;9.98;;;7.30;1.00;;;;;;7361821;19;20474;-61
2022/02/28 11:46:20;;;;;;;16.35;9.95;;;7.40;1.00;;;;;;7363103;19;20027;-60
2022/02/28 11:48:55;;;;;;;16.00;9.93;;;7.20;1.00;;;;;;7362098;19;20470;-60
2022/02/28 11:51:32;;;;;;;18.38;10.20;;;7.40;1.00;;;;;;7386613;19;20459;-61
2022/02/28 11:54:03;;;;;;;16.52;9.50;;;7.50;1.00;;;;;;7355768;19;20359;-61
2022/02/28 11:56:49;;;;;;;15.15;9.82;;;7.60;1.00;;;;;;7360385;19;20047;-60
2022/02/28 11:59:21;;;;;;;15.25;9.27;;;7.90;1.00;;;;;;7360821;19;20469;-60
2022/02/28 12:02:00;;;;;;;13.63;9.57;;;7.80;1.00;;;;;;7360252;19;20117;-60
2022/02/28 12:04:43;;;;;;;13.63;8.77;;;7.80;1.00;;;;;;7358667;19;20618;-58
2022/02/28 12:07:27;;;;;;;18.27;10.65;;;7.90;1.00;;;;;;7362877;19;20025;-60
2022/02/28 12:10:11;;;;;;;16.98;9.95;;;7.80;1.00;;;;;;7361667;19;20547;-60
2022/02/28 12:12:59;;;;;;;18.20;9.52;;;7.90;1.00;;;;;;7358106;19;20025;-60
2022/02/28 12:15:49;;;;;;;15.40;9.38;;;7.90;1.00;;;;;;7358247;19;20538;-60
2022/02/28 12:18:20;;;;;;;15.88;9.27;;;8.00;1.00;;;;;;7381399;19;20031;-60
2022/02/28 12:21:10;;;;;;;13.63;9.13;;;8.00;1.00;;;;;;7362691;19;20362;-60
2022/02/28 12:23:49;;;;;;;15.77;9.38;;;8.20;1.00;;;;;;7361063;19;20127;-60
2022/02/28 12:26:19;;;;;;;14.57;7.82;;;8.20;1.00;;;;;;7361644;19;20058;-60
2022/02/28 12:28:54;;;;;;;15.70;9.63;;;8.10;1.00;;;;;;7360557;19;20024;-59
2022/02/28 12:31:41;;;;;;;14.27;8.05;;;8.00;1.00;;;;;;7361382;19;20010;-60
2022/02/28 12:34:13;;;;;;;15.43;9.00;;;8.00;1.00;;;;;;7354581;19;20494;-60
2022/02/28 12:36:47;;;;;;;;;;;8.20;1.00;;;;;;7363126;19;20021;-60
2022/02/28 12:39:19;;;;;;;14.15;8.93;;;8.30;1.00;;;;;;7383054;19;20308;-60
2022/02/28 12:41:55;;;;;;;15.48;9.20;;;8.00;1.00;;;;;;7359981;19;20003;-60
2022/02/28 12:44:28;;;;;;;19.17;9.07;;;8.00;1.00;;;;;;7355753;19;20013;-60
2022/02/28 12:46:58;;;;;;;15.32;9.73;;;8.30;1.00;;;;;;7359577;19;20010;-60
2022/02/28 12:49:30;;;;;;;15.73;9.95;;;8.20;1.00;;;;;;7359143;19;20039;-58
2022/02/28 12:52:01;;;;;;;17.75;10.10;;;8.40;1.00;;;;;;7355790;19;20025;-60
2022/02/28 12:54:31;;;;;;;15.60;9.80;;;8.40;1.00;;;;;;7375586;19;20043;-59
2022/02/28 12:57:03;;;;;;;13.50;9.48;;;8.50;1.00;;;;;;7356202;19;20018;-60
2022/02/28 12:59:37;;;;;;;16.85;9.73;;;8.50;1.00;;;;;;7357371;19;20185;-58
2022/02/28 13:02:09;;;;;;;15.75;9.13;;;8.50;1.00;;;;;;7358046;19;20013;-60
2022/02/28 13:04:39;;;;;;;16.02;9.65;;;8.60;1.00;;;;;;7355592;19;20089;-60
2022/02/28 13:07:16;;;;;;;13.77;8.88;;;8.80;1.00;;;;;;7360096;19;20513;-61
2022/02/28 13:09:46;;;;;;;12.55;8.65;;;8.60;1.00;;;;;;7357825;19;20388;-60
2022/02/28 13:12:16;;;;;;;18.83;9.38;;;8.70;1.00;;;;;;7380311;19;20007;-60